createdAt,value
2023-04-16T00:01:01.368Z,75.72
2023-04-16T00:05:13.311Z,76.10
2023-04-16T00:09:22.887Z,76.21
2023-04-16T00:13:30.994Z,76.25
2023-04-16T00:17:39.059Z,76.83
2023-04-16T00:21:47.094Z,76.74
2023-04-16T00:25:57.487Z,76.77
2023-04-16T00:30:06.243Z,76.77
2023-04-16T00:34:14.296Z,76.63
2023-04-16T00:38:21.962Z,76.99
2023-04-16T00:42:30.816Z,76.56
2023-04-16T00:46:41.979Z,76.69
2023-04-16T00:50:51.059Z,76.50
2023-04-16T00:54:59.549Z,76.70
2023-04-16T00:59:07.964Z,77.10
2023-04-16T01:03:16.593Z,77.30
2023-04-16T01:07:25.387Z,77.83
2023-04-16T01:11:33.733Z,78.18
2023-04-16T01:15:41.508Z,78.07
2023-04-16T01:19:49.654Z,78.00
2023-04-16T01:23:57.531Z,78.10
2023-04-16T01:28:05.237Z,78.12
2023-04-16T01:32:13.051Z,78.34
2023-04-16T01:36:20.653Z,78.10
2023-04-16T01:40:28.861Z,77.86
2023-04-16T01:44:37.364Z,78.46
2023-04-16T01:48:45.100Z,78.51
2023-04-16T01:52:53.041Z,78.42
2023-04-16T01:57:02.038Z,78.50
2023-04-16T02:01:09.936Z,78.52
2023-04-16T02:05:18.206Z,78.65
2023-04-16T02:09:26.110Z,78.42
2023-04-16T02:13:34.077Z,78.72
2023-04-16T02:17:41.837Z,78.87
2023-04-16T02:21:50.128Z,79.05
2023-04-16T02:25:58.490Z,78.96
2023-04-16T02:30:07.725Z,79.02
2023-04-16T02:34:15.582Z,79.02
2023-04-16T02:38:23.590Z,79.07
2023-04-16T02:42:31.753Z,79.20
2023-04-16T02:46:39.352Z,79.18
2023-04-16T02:50:47.258Z,79.24
2023-04-16T02:54:56.007Z,79.62
2023-04-16T02:59:04.477Z,79.91
2023-04-16T03:03:12.110Z,79.96
2023-04-16T03:07:21.996Z,80.03
2023-04-16T03:11:29.794Z,80.20
2023-04-16T03:15:37.560Z,80.16
2023-04-16T03:19:45.996Z,80.09
2023-04-16T03:23:56.214Z,80.28
2023-04-16T03:28:04.384Z,80.29
2023-04-16T03:32:12.786Z,80.32
2023-04-16T03:36:20.591Z,80.32
2023-04-16T03:40:28.046Z,80.28
2023-04-16T03:44:36.336Z,80.40
2023-04-16T03:48:44.386Z,80.46
2023-04-16T03:52:52.034Z,80.43
2023-04-16T03:57:00.486Z,80.42
2023-04-16T04:01:08.054Z,80.48
2023-04-16T04:05:16.180Z,80.39
2023-04-16T04:09:24.295Z,80.45
2023-04-16T04:13:33.622Z,80.75
2023-04-16T04:17:41.668Z,81.07
2023-04-16T04:21:49.662Z,81.74
2023-04-16T04:25:57.790Z,82.19
2023-04-16T04:30:06.102Z,82.32
2023-04-16T04:34:13.695Z,82.58
2023-04-16T04:38:22.577Z,83.12
2023-04-16T04:42:30.316Z,83.49
2023-04-16T04:46:38.275Z,83.80
2023-04-16T04:50:48.633Z,83.81
2023-04-16T04:54:56.525Z,83.84
2023-04-16T04:59:04.503Z,83.80
2023-04-16T05:03:15.070Z,83.98
2023-04-16T05:07:23.242Z,83.92
2023-04-16T05:11:31.740Z,83.75
2023-04-16T05:15:39.456Z,83.51
2023-04-16T05:19:47.413Z,83.55
2023-04-16T05:23:55.141Z,83.41
2023-04-16T05:28:02.938Z,83.34
2023-04-16T05:32:12.827Z,83.38
2023-04-16T05:36:20.709Z,83.21
2023-04-16T05:40:28.484Z,83.08
2023-04-16T05:44:37.486Z,83.01
2023-04-16T05:48:45.767Z,83.10
2023-04-16T05:52:53.539Z,83.17
2023-04-16T05:57:02.536Z,83.22
2023-04-16T06:01:12.601Z,83.35
2023-04-16T06:05:20.991Z,83.36
2023-04-16T06:09:30.205Z,83.48
2023-04-16T06:13:38.364Z,83.53
2023-04-16T06:17:46.732Z,83.77
2023-04-16T06:21:54.769Z,84.16
2023-04-16T06:26:03.413Z,84.22
2023-04-16T06:30:15.488Z,84.51
2023-04-16T06:34:24.989Z,84.53
2023-04-16T06:38:33.474Z,84.44
2023-04-16T06:42:42.352Z,84.66
2023-04-16T06:46:52.013Z,84.49
2023-04-16T06:51:00.332Z,84.45
2023-04-16T06:55:10.047Z,84.54
2023-04-16T06:59:18.231Z,84.53
2023-04-16T07:03:26.693Z,84.16
2023-04-16T07:07:36.378Z,84.34
2023-04-16T07:11:45.579Z,84.51
2023-04-16T07:15:53.637Z,84.61
2023-04-16T07:20:01.181Z,84.25
2023-04-16T07:24:09.700Z,84.46
2023-04-16T07:28:18.664Z,84.25
2023-04-16T07:32:26.663Z,84.44
2023-04-16T07:36:34.159Z,84.46
2023-04-16T07:40:42.940Z,84.26
2023-04-16T07:44:50.577Z,84.09
2023-04-16T07:48:58.533Z,83.90
2023-04-16T07:53:07.939Z,84.43
2023-04-16T07:57:16.726Z,84.80
2023-04-16T08:01:24.527Z,84.85
2023-04-16T08:05:32.831Z,85.00
2023-04-16T08:09:50.757Z,84.58
2023-04-16T08:13:59.085Z,84.39
2023-04-16T08:18:13.284Z,83.98
2023-04-16T08:22:21.478Z,84.66
2023-04-16T08:26:29.813Z,84.57
2023-04-16T08:30:38.864Z,84.48
2023-04-16T08:34:47.527Z,83.76
2023-04-16T08:38:55.200Z,83.55
2023-04-16T08:43:07.316Z,83.53
2023-04-16T08:47:16.188Z,83.30
2023-04-16T08:51:31.955Z,83.16
2023-04-16T08:55:44.420Z,82.60
2023-04-16T08:59:54.835Z,82.02
2023-04-16T09:04:04.319Z,81.72
2023-04-16T09:08:12.645Z,81.67
2023-04-16T09:12:21.140Z,81.36
2023-04-16T09:16:33.549Z,80.60
2023-04-16T09:20:41.286Z,79.17
2023-04-16T09:24:49.427Z,79.62
2023-04-16T09:28:57.553Z,78.71
2023-04-16T09:33:22.856Z,78.38
2023-04-16T09:37:34.701Z,78.84
2023-04-16T09:41:47.918Z,78.40
2023-04-16T09:45:56.714Z,77.62
2023-04-16T09:50:04.467Z,77.16
2023-04-16T09:54:13.727Z,76.44
2023-04-16T09:58:26.419Z,76.59
2023-04-16T10:02:39.413Z,75.79
2023-04-16T10:06:48.684Z,75.14
2023-04-16T10:10:57.650Z,74.93
2023-04-16T10:15:07.093Z,72.47
2023-04-16T10:19:15.414Z,71.81
2023-04-16T10:23:25.057Z,72.43
2023-04-16T10:27:32.931Z,70.79
2023-04-16T10:31:41.889Z,70.46
2023-04-16T10:36:04.925Z,67.75
2023-04-16T10:40:29.981Z,65.31
2023-04-16T10:44:38.346Z,63.79
2023-04-16T10:48:50.414Z,65.42
2023-04-16T10:53:20.801Z,65.36
2023-04-16T10:57:32.544Z,63.21
2023-04-16T11:01:43.397Z,63.21
2023-04-16T11:05:51.454Z,63.42
2023-04-16T11:10:00.738Z,63.07
2023-04-16T11:14:13.007Z,59.20
2023-04-16T11:18:23.409Z,59.02
2023-04-16T11:22:32.088Z,59.06
2023-04-16T11:26:39.792Z,58.62
2023-04-16T11:30:48.821Z,59.14
2023-04-16T11:34:56.569Z,57.97
2023-04-16T11:39:08.011Z,58.35
2023-04-16T11:43:18.627Z,58.72
2023-04-16T11:47:27.900Z,58.04
2023-04-16T11:51:36.198Z,56.92
2023-04-16T11:55:47.912Z,56.13
2023-04-16T12:00:02.208Z,55.63
2023-04-16T12:04:11.193Z,55.74
2023-04-16T12:08:32.904Z,56.16
2023-04-16T12:12:40.818Z,55.49
2023-04-16T12:16:48.616Z,56.55
2023-04-16T12:20:58.451Z,56.32
2023-04-16T12:25:08.007Z,55.39
2023-04-16T12:29:20.824Z,53.97
2023-04-16T12:33:28.502Z,50.09
2023-04-16T12:37:36.755Z,48.98
2023-04-16T12:41:45.404Z,49.24
2023-04-16T12:45:52.856Z,51.56
2023-04-16T12:50:01.393Z,50.50
2023-04-16T12:54:09.864Z,49.12
2023-04-16T12:58:17.923Z,49.76
2023-04-16T13:02:25.802Z,50.59
2023-04-16T13:06:35.539Z,49.64
2023-04-16T13:10:44.997Z,49.86
2023-04-16T13:14:53.713Z,48.94
2023-04-16T13:19:01.831Z,47.63
2023-04-16T13:23:10.373Z,48.01
2023-04-16T13:27:18.064Z,48.34
2023-04-16T13:31:27.849Z,47.00
2023-04-16T13:35:37.381Z,47.41
2023-04-16T13:39:47.616Z,47.83
2023-04-16T13:43:55.544Z,46.96
2023-04-16T13:48:03.794Z,47.05
2023-04-16T13:52:12.670Z,46.61
2023-04-16T13:56:20.336Z,46.17
2023-04-16T14:00:29.908Z,46.83
2023-04-16T14:04:37.873Z,45.72
2023-04-16T14:08:45.405Z,45.73
2023-04-16T14:12:53.398Z,45.43
2023-04-16T14:17:01.108Z,45.85
2023-04-16T14:21:08.867Z,45.45
2023-04-16T14:25:17.817Z,45.41
2023-04-16T14:29:26.007Z,45.49
2023-04-16T14:33:35.117Z,44.83
2023-04-16T14:37:43.097Z,45.00
2023-04-16T14:41:51.900Z,46.13
2023-04-16T14:46:00.252Z,46.34
2023-04-16T14:50:11.645Z,47.69
2023-04-16T14:54:20.823Z,48.32
2023-04-16T14:58:29.272Z,47.03
2023-04-16T15:02:37.830Z,45.14
2023-04-16T15:06:51.683Z,46.14
2023-04-16T15:10:59.769Z,45.32
2023-04-16T15:15:10.083Z,44.85
2023-04-16T15:19:19.064Z,43.79
2023-04-16T15:23:30.332Z,44.16
2023-04-16T15:27:44.743Z,44.72
2023-04-16T15:31:53.960Z,44.31
2023-04-16T15:36:01.599Z,44.40
2023-04-16T15:40:13.064Z,45.10
2023-04-16T15:44:20.541Z,45.01
2023-04-16T15:48:29.677Z,45.17
2023-04-16T15:52:38.680Z,45.75
2023-04-16T15:56:46.635Z,45.40
2023-04-16T16:00:54.520Z,46.06
2023-04-16T16:05:03.746Z,47.11
2023-04-16T16:09:16.779Z,47.99
2023-04-16T16:13:24.462Z,48.06
2023-04-16T16:17:31.940Z,49.81
2023-04-16T16:21:39.626Z,51.64
2023-04-16T16:25:47.551Z,52.77
2023-04-16T16:29:55.226Z,52.39
2023-04-16T16:34:03.576Z,53.68
2023-04-16T16:38:11.756Z,54.53
2023-04-16T16:42:19.428Z,55.30
2023-04-16T16:46:26.917Z,57.61
2023-04-16T16:50:35.775Z,59.58
2023-04-16T16:54:44.053Z,59.81
2023-04-16T16:58:51.863Z,60.30
2023-04-16T17:03:00.845Z,59.96
2023-04-16T17:07:08.704Z,60.45
2023-04-16T17:11:17.721Z,61.29
2023-04-16T17:15:25.955Z,62.42
2023-04-16T17:19:33.646Z,63.32
2023-04-16T17:23:41.787Z,63.22
2023-04-16T17:27:49.864Z,63.12
2023-04-16T17:31:58.081Z,62.60
2023-04-16T17:36:06.334Z,62.78
2023-04-16T17:40:19.020Z,64.24
2023-04-16T17:44:28.446Z,64.35
2023-04-16T17:48:36.677Z,65.52
2023-04-16T17:52:44.615Z,66.29
2023-04-16T17:56:52.756Z,66.98
2023-04-16T18:01:00.430Z,67.78
2023-04-16T18:05:10.767Z,68.06
2023-04-16T18:09:19.753Z,68.76
2023-04-16T18:13:28.316Z,69.41
2023-04-16T18:17:36.280Z,69.77
2023-04-16T18:21:44.420Z,70.10
2023-04-16T18:25:52.190Z,70.56
2023-04-16T18:30:00.165Z,71.14
2023-04-16T18:34:07.976Z,71.24
2023-04-16T18:38:16.975Z,71.57
2023-04-16T18:42:25.080Z,71.75
2023-04-16T18:46:33.265Z,71.68
2023-04-16T18:50:41.548Z,71.97
2023-04-16T18:54:49.197Z,72.25
2023-04-16T18:58:57.239Z,72.19
2023-04-16T19:03:07.025Z,72.38
2023-04-16T19:07:16.906Z,72.74
2023-04-16T19:11:24.551Z,72.80
2023-04-16T19:15:34.891Z,72.62
2023-04-16T19:19:45.709Z,73.15
2023-04-16T19:23:55.397Z,73.34
2023-04-16T19:28:03.614Z,73.16
2023-04-16T19:32:14.006Z,72.88
2023-04-16T19:36:23.004Z,73.05
2023-04-16T19:40:30.457Z,73.32
2023-04-16T19:44:38.220Z,73.67
2023-04-16T19:48:47.096Z,73.37
2023-04-16T19:52:55.502Z,73.43
2023-04-16T19:57:04.282Z,73.68
2023-04-16T20:01:14.117Z,74.03
2023-04-16T20:05:22.394Z,73.86
2023-04-16T20:09:31.189Z,74.49
2023-04-16T20:13:39.565Z,74.53
2023-04-16T20:17:48.434Z,74.75
2023-04-16T20:21:59.860Z,74.79
2023-04-16T20:26:07.699Z,74.96
2023-04-16T20:30:17.322Z,74.92
2023-04-16T20:34:25.263Z,75.56
2023-04-16T20:38:35.828Z,75.67
2023-04-16T20:42:46.646Z,75.38
2023-04-16T20:46:57.145Z,75.85
2023-04-16T20:51:07.963Z,75.88
2023-04-16T20:55:15.872Z,76.11
2023-04-16T20:59:24.378Z,76.17
2023-04-16T21:03:32.344Z,76.32
2023-04-16T21:07:40.851Z,76.07
2023-04-16T21:11:50.494Z,76.15
2023-04-16T21:15:58.324Z,76.46
2023-04-16T21:20:10.703Z,76.36
2023-04-16T21:24:18.721Z,77.09
2023-04-16T21:28:26.432Z,76.85
2023-04-16T21:32:35.964Z,77.34
2023-04-16T21:36:43.344Z,77.23
2023-04-16T21:40:54.144Z,77.09
2023-04-16T21:45:02.054Z,77.96
2023-04-16T21:49:10.018Z,77.86
2023-04-16T21:53:18.310Z,78.32
2023-04-16T21:57:26.021Z,78.53
2023-04-16T22:01:33.735Z,78.50
2023-04-16T22:05:41.714Z,78.07
2023-04-16T22:09:49.728Z,78.28
2023-04-16T22:13:58.380Z,77.95
2023-04-16T22:18:06.568Z,77.85
2023-04-16T22:22:15.040Z,78.38
2023-04-16T22:26:22.934Z,78.56
2023-04-16T22:30:30.896Z,78.64
2023-04-16T22:34:40.588Z,78.49
2023-04-16T22:38:49.032Z,78.75
2023-04-16T22:42:56.764Z,78.80
2023-04-16T22:47:04.563Z,78.66
2023-04-16T22:51:12.434Z,78.67
2023-04-16T22:55:21.952Z,78.37
2023-04-16T22:59:29.747Z,79.04
2023-04-16T23:03:37.687Z,78.95
2023-04-16T23:07:45.645Z,79.05
2023-04-16T23:11:53.833Z,79.09
2023-04-16T23:16:01.836Z,79.31
2023-04-16T23:20:13.224Z,79.08
2023-04-16T23:24:20.914Z,79.56
2023-04-16T23:28:28.387Z,79.43
2023-04-16T23:32:35.981Z,79.40
2023-04-16T23:36:44.032Z,79.25
2023-04-16T23:40:51.963Z,79.48
2023-04-16T23:45:00.326Z,79.45
2023-04-16T23:49:08.281Z,79.36
2023-04-16T23:53:16.644Z,79.78
2023-04-16T23:57:24.521Z,79.45
